createdAt,value
2017-04-28T00:01:00.786Z,47.13
2017-04-28T00:02:14.893Z,47.8
2017-04-28T00:03:28.324Z,47.13
2017-04-28T00:04:41.763Z,47.23
2017-04-28T00:05:55.179Z,47.23
2017-04-28T00:07:08.659Z,47.23
2017-04-28T00:08:22.057Z,47.04
2017-04-28T00:09:35.750Z,47.04
2017-04-28T00:10:49.199Z,46.85
2017-04-28T00:12:02.979Z,46.85
2017-04-28T00:13:16.772Z,46.66
2017-04-28T00:14:30.499Z,46.47
2017-04-28T00:15:44.242Z,46.66
2017-04-28T00:16:58.001Z,46.56
2017-04-28T00:18:11.525Z,46.85
2017-04-28T00:19:25.101Z,46.37
2017-04-28T00:20:39.337Z,46.28
2017-04-28T00:21:52.892Z,46.37
2017-04-28T00:23:06.337Z,46.66
2017-04-28T00:24:19.776Z,46.37
2017-04-28T00:25:33.195Z,46.66
2017-04-28T00:26:46.594Z,46.75
2017-04-28T00:28:00.083Z,46.28
2017-04-28T00:29:14.291Z,46.37
2017-04-28T00:30:27.679Z,46.56
2017-04-28T00:31:41.328Z,46.85
2017-04-28T00:32:55.097Z,46.56
2017-04-28T00:34:08.584Z,46.28
2017-04-28T00:35:22.029Z,46
2017-04-28T00:36:35.581Z,46.09
2017-04-28T00:37:49.019Z,46.19
2017-04-28T00:39:02.552Z,46.28
2017-04-28T00:40:15.959Z,46.09
2017-04-28T00:41:29.544Z,46.09
2017-04-28T00:42:42.989Z,46.28
2017-04-28T00:43:56.432Z,46.37
2017-04-28T00:45:09.947Z,46
2017-04-28T00:46:23.678Z,46.09
2017-04-28T00:47:37.083Z,46.28
2017-04-28T00:48:50.871Z,45.9
2017-04-28T00:50:04.322Z,46.19
2017-04-28T00:51:17.741Z,46.28
2017-04-28T00:52:31.177Z,46.19
2017-04-28T00:53:44.568Z,46.09
2017-04-28T00:54:58.022Z,46.19
2017-04-28T00:56:11.434Z,46.09
2017-04-28T00:57:24.829Z,46.28
2017-04-28T00:58:38.335Z,46.56
2017-04-28T00:59:51.821Z,46.56
2017-04-28T01:01:05.250Z,46.47
2017-04-28T01:02:18.686Z,46.56
2017-04-28T01:03:32.082Z,46.56
2017-04-28T01:04:45.788Z,46.75
2017-04-28T01:05:59.369Z,46.64
2017-04-28T01:07:13.038Z,46.85
2017-04-28T01:08:26.433Z,46.85
2017-04-28T01:09:40.199Z,46.75
2017-04-28T01:10:53.984Z,46.83
2017-04-28T01:12:08.045Z,46.64
2017-04-28T01:13:21.870Z,46.54
2017-04-28T01:14:35.321Z,46.54
2017-04-28T01:15:48.824Z,46.73
2017-04-28T01:17:02.545Z,46.92
2017-04-28T01:18:16.810Z,46.56
2017-04-28T01:19:30.651Z,46.64
2017-04-28T01:20:44.081Z,46.85
2017-04-28T01:21:57.558Z,46.47
2017-04-28T01:23:11.009Z,47.02
2017-04-28T01:24:24.492Z,46.94
2017-04-28T01:25:38.137Z,46.83
2017-04-28T01:26:51.648Z,46.66
2017-04-28T01:28:05.123Z,46.66
2017-04-28T01:29:18.859Z,46.83
2017-04-28T01:30:32.654Z,47.02
2017-04-28T01:31:46.160Z,47.2
2017-04-28T01:33:00.017Z,47.2
2017-04-28T01:34:13.794Z,47.11
2017-04-28T01:35:27.248Z,47.11
2017-04-28T01:36:40.661Z,47.3
2017-04-28T01:37:54.612Z,47.11
2017-04-28T01:39:08.824Z,47.3
2017-04-28T01:40:22.227Z,47.39
2017-04-28T01:41:35.600Z,47.3
2017-04-28T01:42:49.028Z,47.49
2017-04-28T01:44:02.437Z,47.3
2017-04-28T01:45:15.828Z,47.77
2017-04-28T01:46:29.223Z,47.87
2017-04-28T01:47:43.004Z,47.77
2017-04-28T01:48:56.438Z,47.58
2017-04-28T01:50:09.850Z,47.58
2017-04-28T01:51:23.568Z,47.77
2017-04-28T01:52:37.174Z,47.97
2017-04-28T01:53:50.962Z,47.97
2017-04-28T01:55:04.428Z,47.87
2017-04-28T01:56:17.850Z,47.77
2017-04-28T01:57:31.252Z,47.68
2017-04-28T01:58:44.728Z,47.87
2017-04-28T01:59:58.615Z,48.63
2017-04-28T02:01:12.049Z,48.44
2017-04-28T02:02:25.474Z,48.44
2017-04-28T02:03:39.255Z,48.63
2017-04-28T02:04:52.702Z,48.54
2017-04-28T02:06:06.418Z,48.16
2017-04-28T02:07:19.840Z,48.25
2017-04-28T02:08:33.212Z,48.44
2017-04-28T02:09:46.699Z,48.63
2017-04-28T02:11:00.113Z,48.63
2017-04-28T02:12:13.852Z,48.54
2017-04-28T02:13:27.404Z,48.72
2017-04-28T02:14:41.202Z,48.54
2017-04-28T02:15:54.652Z,48.54
2017-04-28T02:17:08.102Z,48.44
2017-04-28T02:18:27.770Z,47.87
2017-04-28T02:19:41.586Z,47.87
2017-04-28T02:20:55.009Z,47.87
2017-04-28T02:22:08.467Z,47.87
2017-04-28T02:23:21.891Z,47.68
2017-04-28T02:24:35.474Z,47.77
2017-04-28T02:25:49.061Z,47.97
2017-04-28T02:27:03.036Z,48.25
2017-04-28T02:28:16.443Z,48.54
2017-04-28T02:29:30.423Z,48.44
2017-04-28T02:30:43.856Z,48.35
2017-04-28T02:31:57.305Z,48.25
2017-04-28T02:33:11.171Z,48.72
2017-04-28T02:34:26.128Z,48.63
2017-04-28T02:35:40.136Z,49.1
2017-04-28T02:36:53.987Z,49.39
2017-04-28T02:38:07.500Z,49.29
2017-04-28T02:39:21.273Z,49.1
2017-04-28T02:40:35.091Z,48.82
2017-04-28T02:41:48.557Z,49.49
2017-04-28T02:43:01.985Z,49.49
2017-04-28T02:44:15.793Z,48.72
2017-04-28T02:45:29.381Z,49.1
2017-04-28T02:46:42.969Z,48.63
2017-04-28T02:47:56.940Z,48.63
2017-04-28T02:49:11.030Z,49.49
2017-04-28T02:50:24.814Z,49.2
2017-04-28T02:51:38.212Z,49.1
2017-04-28T02:52:51.724Z,49.2
2017-04-28T02:54:05.242Z,49.1
2017-04-28T02:55:18.714Z,49.39
2017-04-28T02:56:32.158Z,48.91
2017-04-28T02:57:45.614Z,48.63
2017-04-28T02:58:59.054Z,49.01
2017-04-28T03:00:12.585Z,49.39
2017-04-28T03:01:26.050Z,49.1
2017-04-28T03:02:39.464Z,49.2
2017-04-28T03:03:53.228Z,49.39
2017-04-28T03:05:06.625Z,49.29
2017-04-28T03:06:20.646Z,49.49
2017-04-28T03:07:34.111Z,49.49
2017-04-28T03:08:47.662Z,49.49
2017-04-28T03:10:01.072Z,49.96
2017-04-28T03:11:14.492Z,49.96
2017-04-28T03:12:27.943Z,49.96
2017-04-28T03:13:41.463Z,50.05
2017-04-28T03:14:54.925Z,50.15
2017-04-28T03:16:08.663Z,50.15
2017-04-28T03:17:22.131Z,50.34
2017-04-28T03:18:35.825Z,50.91
2017-04-28T03:19:49.554Z,50.62
2017-04-28T03:21:03.456Z,50.62
2017-04-28T03:22:16.920Z,50.6
2017-04-28T03:23:30.441Z,50.79
2017-04-28T03:24:50.413Z,50.7
2017-04-28T03:26:03.857Z,50.7
2017-04-28T03:27:17.279Z,50.6
2017-04-28T03:28:30.741Z,50.7
2017-04-28T03:29:44.451Z,50.62
2017-04-28T03:30:57.843Z,50.98
2017-04-28T03:32:11.263Z,50.89
2017-04-28T03:33:24.725Z,50.98
2017-04-28T03:34:38.123Z,51.07
2017-04-28T03:35:51.519Z,51.26
2017-04-28T03:37:05.237Z,51.17
2017-04-28T03:38:18.678Z,52.02
2017-04-28T03:39:32.081Z,51.74
2017-04-28T03:40:46.009Z,52.87
2017-04-28T03:41:59.632Z,54.49
2017-04-28T03:43:13.050Z,54.78
2017-04-28T03:44:26.798Z,54.3
2017-04-28T03:45:40.550Z,55.63
2017-04-28T03:46:53.999Z,56.39
2017-04-28T03:48:07.470Z,56.2
2017-04-28T03:49:20.929Z,54.39
2017-04-28T03:50:34.720Z,53.92
2017-04-28T03:51:48.252Z,53.64
2017-04-28T03:53:01.791Z,54.21
2017-04-28T03:54:15.576Z,54.87
2017-04-28T03:55:28.980Z,53.83
2017-04-28T03:56:42.357Z,53.35
2017-04-28T03:57:55.796Z,54.39
2017-04-28T03:59:09.196Z,54.39
2017-04-28T04:00:22.782Z,54.02
2017-04-28T04:01:36.284Z,54.58
2017-04-28T04:02:49.662Z,55.25
2017-04-28T04:04:03.383Z,54.87
2017-04-28T04:05:16.850Z,55.16
2017-04-28T04:06:30.464Z,57.06
2017-04-28T04:07:43.909Z,56.01
2017-04-28T04:08:57.348Z,55.06
2017-04-28T04:10:10.839Z,56.68
2017-04-28T04:11:24.255Z,56.49
2017-04-28T04:12:37.653Z,55.06
2017-04-28T04:13:51.061Z,54.3
2017-04-28T04:15:04.460Z,53.92
2017-04-28T04:16:17.913Z,53.92
2017-04-28T04:17:31.355Z,54.21
2017-04-28T04:18:45.090Z,53.64
2017-04-28T04:19:58.605Z,53.64
2017-04-28T04:21:12.091Z,54.3
2017-04-28T04:22:25.794Z,54.49
2017-04-28T04:23:39.224Z,54.68
2017-04-28T04:24:52.667Z,54.43
2017-04-28T04:26:06.458Z,54.33
2017-04-28T04:27:19.978Z,54.61
2017-04-28T04:28:33.395Z,54.33
2017-04-28T04:29:46.788Z,57.75
2017-04-28T04:31:00.500Z,57.4
2017-04-28T04:32:13.986Z,54.55
2017-04-28T04:33:27.395Z,52.64
2017-04-28T04:34:40.856Z,51.12
2017-04-28T04:35:54.589Z,50.74
2017-04-28T04:37:08.064Z,50.93
2017-04-28T04:38:21.490Z,50.08
2017-04-28T04:39:34.941Z,50.37
2017-04-28T04:40:50.153Z,49.15
2017-04-28T04:42:03.646Z,48.68
2017-04-28T04:43:17.299Z,48.11
2017-04-28T04:44:30.741Z,48.58
2017-04-28T04:45:44.132Z,50.1
2017-04-28T04:46:57.585Z,49.25
2017-04-28T04:48:11.086Z,47.85
2017-04-28T04:49:24.565Z,45.87
2017-04-28T04:50:37.958Z,45.14
2017-04-28T04:51:51.382Z,45.54
2017-04-28T04:53:04.978Z,45.44
2017-04-28T04:54:18.394Z,44.39
2017-04-28T04:55:31.804Z,43.56
2017-04-28T04:56:45.215Z,43.54
2017-04-28T04:57:58.652Z,44.18
2017-04-28T04:59:12.078Z,43.23
2017-04-28T05:00:26.232Z,45.25
2017-04-28T05:01:39.625Z,44.75
2017-04-28T05:02:53.053Z,44.66
2017-04-28T05:04:06.484Z,44.85
2017-04-28T05:05:20.359Z,43.63
2017-04-28T05:06:33.922Z,44.49
2017-04-28T05:07:47.389Z,45.89
2017-04-28T05:09:00.875Z,47.42
2017-04-28T05:10:14.296Z,47.97
2017-04-28T05:11:28.002Z,49.2
2017-04-28T05:12:41.619Z,49.94
2017-04-28T05:13:55.219Z,49.46
2017-04-28T05:15:09.057Z,51.84
2017-04-28T05:16:23.216Z,52.67
2017-04-28T05:17:39.676Z,53.72
2017-04-28T05:18:53.125Z,53.53
2017-04-28T05:20:06.672Z,53.72
2017-04-28T05:21:20.081Z,54.19
2017-04-28T05:22:33.460Z,53.81
2017-04-28T05:23:47.113Z,53.72
2017-04-28T05:25:00.577Z,54.1
2017-04-28T05:26:14.029Z,54.1
2017-04-28T05:27:28.057Z,54.29
2017-04-28T05:28:41.481Z,53.72
2017-04-28T05:29:54.961Z,53.53
2017-04-28T05:31:08.947Z,53.72
2017-04-28T05:32:22.658Z,53.63
2017-04-28T05:33:36.215Z,53.63
2017-04-28T05:34:50.470Z,52.58
2017-04-28T05:36:03.860Z,52.76
2017-04-28T05:37:17.448Z,53.63
2017-04-28T05:38:31.460Z,53.63
2017-04-28T05:39:44.909Z,52.48
2017-04-28T05:40:58.392Z,52.58
2017-04-28T05:42:11.808Z,51.84
2017-04-28T05:43:25.244Z,52.03
2017-04-28T05:44:38.689Z,52.7
2017-04-28T05:45:52.189Z,52.41
2017-04-28T05:47:05.920Z,52.22
2017-04-28T05:48:19.347Z,51.56
2017-04-28T05:49:32.795Z,51.46
2017-04-28T05:50:46.232Z,51.08
2017-04-28T05:52:00.311Z,51.18
2017-04-28T05:53:13.780Z,51.18
2017-04-28T05:54:46.584Z,51.56
2017-04-28T05:56:00.026Z,51.49
2017-04-28T05:57:13.539Z,51.56
2017-04-28T05:58:27.314Z,51.56
2017-04-28T05:59:40.711Z,51.56
2017-04-28T06:00:54.124Z,51.18
2017-04-28T06:02:07.836Z,50.6
2017-04-28T06:03:21.275Z,49.85
2017-04-28T06:04:34.758Z,49.77
2017-04-28T06:05:48.421Z,50.06
2017-04-28T06:07:02.203Z,49.77
2017-04-28T06:08:15.689Z,49.68
2017-04-28T06:09:29.143Z,48.63
2017-04-28T06:10:43.249Z,48.44
2017-04-28T06:11:56.745Z,47.87
2017-04-28T06:13:10.165Z,47.78
2017-04-28T06:15:27.734Z,47.58
2017-04-28T06:16:41.197Z,47.49
2017-04-28T06:17:55.382Z,47.3
2017-04-28T06:19:08.891Z,47.58
2017-04-28T06:20:22.624Z,47.23
2017-04-28T06:21:36.397Z,47.71
2017-04-28T06:22:49.837Z,47.3
2017-04-28T06:24:03.309Z,47.49
2017-04-28T06:25:18.216Z,47.32
2017-04-28T06:26:31.641Z,47.3
2017-04-28T06:27:45.983Z,47.2
2017-04-28T06:29:00.999Z,47.58
2017-04-28T06:30:15.229Z,47.23
2017-04-28T06:31:29.644Z,46.84
2017-04-28T06:32:44.005Z,46.84
2017-04-28T06:33:57.836Z,47.04
2017-04-28T06:35:11.491Z,47.13
2017-04-28T06:36:25.283Z,46.66
2017-04-28T06:37:39.145Z,47.52
2017-04-28T06:38:52.559Z,47.52
2017-04-28T06:40:06.055Z,47.13
2017-04-28T06:41:19.519Z,47.61
2017-04-28T06:42:32.931Z,46.75
2017-04-28T06:43:46.337Z,46.66
2017-04-28T06:45:00.145Z,46.28
2017-04-28T06:46:13.865Z,46.84
2017-04-28T06:47:27.273Z,47.39
2017-04-28T06:48:40.675Z,46.92
2017-04-28T06:49:54.203Z,47.02
2017-04-28T06:51:07.851Z,46.47
2017-04-28T06:52:21.578Z,46.54
2017-04-28T06:53:35.380Z,46.56
2017-04-28T06:54:48.857Z,46.47
2017-04-28T06:56:02.335Z,46.18
2017-04-28T06:57:15.985Z,46.47
2017-04-28T06:58:29.708Z,46.37
2017-04-28T06:59:43.156Z,45.7
2017-04-28T07:00:56.630Z,45.8
2017-04-28T07:02:10.044Z,45.99
2017-04-28T07:03:23.832Z,45.99
2017-04-28T07:04:37.502Z,45.89
2017-04-28T07:05:51.296Z,45.99
2017-04-28T07:07:04.684Z,45.61
2017-04-28T07:08:18.084Z,45.32
2017-04-28T07:09:31.492Z,44.56
2017-04-28T07:10:45.085Z,44.94
2017-04-28T07:11:58.591Z,44.96
2017-04-28T07:13:12.132Z,44.87
2017-04-28T07:14:25.592Z,45.73
2017-04-28T07:15:39.619Z,45.54
2017-04-28T07:16:53.206Z,45.83
2017-04-28T07:18:06.940Z,45.51
2017-04-28T07:19:20.401Z,45.73
2017-04-28T07:20:33.820Z,45.92
2017-04-28T07:21:47.310Z,46.01
2017-04-28T07:23:01.035Z,45.92
2017-04-28T07:24:14.472Z,45.83
2017-04-28T07:25:27.880Z,45.73
2017-04-28T07:26:41.652Z,45.06
2017-04-28T07:27:55.450Z,44.51
2017-04-28T07:29:08.883Z,44.49
2017-04-28T07:30:22.319Z,44.3
2017-04-28T07:31:35.739Z,44.49
2017-04-28T07:32:49.288Z,44.11
2017-04-28T07:34:02.821Z,44.3
2017-04-28T07:35:16.340Z,44.49
2017-04-28T07:36:30.032Z,44.49
2017-04-28T07:37:43.589Z,43.25
2017-04-28T07:38:57.040Z,42.68
2017-04-28T07:40:10.480Z,42.49
2017-04-28T07:41:24.023Z,42.87
2017-04-28T07:42:37.529Z,43.35
2017-04-28T07:43:51.169Z,43.35
2017-04-28T07:45:04.863Z,43.54
2017-04-28T07:46:18.355Z,43.35
2017-04-28T07:47:31.876Z,43.16
2017-04-28T07:48:45.459Z,43.06
2017-04-28T07:49:59.101Z,43.16
2017-04-28T07:51:12.922Z,42.68
2017-04-28T07:52:26.574Z,42.7
2017-04-28T07:53:40.148Z,42.51
2017-04-28T07:54:54.847Z,42.03
2017-04-28T07:56:08.768Z,41.94
2017-04-28T07:57:22.664Z,41.75
2017-04-28T07:58:36.195Z,42.22
2017-04-28T07:59:49.694Z,42.7
2017-04-28T08:01:03.906Z,42.8
2017-04-28T08:02:17.468Z,42.8
2017-04-28T08:03:30.987Z,42.51
2017-04-28T08:04:45.276Z,41.65
2017-04-28T08:05:58.919Z,41.36
2017-04-28T08:07:12.503Z,41.08
2017-04-28T08:08:26.183Z,40.41
2017-04-28T08:09:54.583Z,41.17
2017-04-28T08:11:08.362Z,41.27
2017-04-28T08:12:21.848Z,40.51
2017-04-28T08:13:35.592Z,39.46
2017-04-28T08:14:49.284Z,39.36
2017-04-28T08:16:03.308Z,39.17
2017-04-28T08:17:16.749Z,39.56
2017-04-28T08:18:30.849Z,40.22
2017-04-28T08:19:44.650Z,40.32
2017-04-28T08:20:58.475Z,39.75
2017-04-28T08:22:11.966Z,40.22
2017-04-28T08:23:25.415Z,39.67
2017-04-28T08:24:58.147Z,39
2017-04-28T08:26:11.660Z,39.48
2017-04-28T08:27:25.194Z,39.67
2017-04-28T08:28:38.682Z,39.76
2017-04-28T08:29:52.160Z,39.58
2017-04-28T08:31:05.958Z,39.29
2017-04-28T08:32:19.489Z,38.81
2017-04-28T08:33:33.025Z,38.71
2017-04-28T08:34:46.563Z,38.24
2017-04-28T08:36:00.056Z,38.15
2017-04-28T08:37:13.547Z,38.24
2017-04-28T08:38:27.106Z,39
2017-04-28T08:39:40.726Z,38.43
2017-04-28T08:40:55.272Z,38.15
2017-04-28T08:42:08.747Z,38.35
2017-04-28T08:43:22.200Z,38.26
2017-04-28T08:44:35.651Z,37.68
2017-04-28T08:45:49.182Z,37.78
2017-04-28T08:47:03.400Z,36.92
2017-04-28T08:48:17.188Z,37.12
2017-04-28T08:49:31.413Z,36.64
2017-04-28T08:50:45.084Z,36.54
2017-04-28T08:51:59.901Z,36.35
2017-04-28T08:53:14.173Z,36.64
2017-04-28T08:54:27.742Z,37.02
2017-04-28T08:55:41.255Z,37.02
2017-04-28T08:56:54.906Z,36.73
2017-04-28T08:58:08.861Z,36.54
2017-04-28T08:59:22.467Z,36.27
2017-04-28T09:00:36.314Z,35.99
2017-04-28T09:01:50.136Z,35.13
2017-04-28T09:03:04.487Z,34.36
2017-04-28T09:04:18.666Z,34.09
2017-04-28T09:05:33.315Z,33.04
2017-04-28T09:06:47.182Z,32.47
2017-04-28T09:08:00.772Z,32.18
2017-04-28T09:09:14.673Z,31.99
2017-04-28T09:10:28.295Z,31.9
2017-04-28T09:11:42.492Z,31.71
2017-04-28T09:12:56.123Z,31.34
2017-04-28T09:14:09.610Z,31.05
2017-04-28T09:15:23.409Z,31.24
2017-04-28T09:16:37.030Z,31.05
2017-04-28T09:17:51.088Z,31.34
2017-04-28T09:19:04.794Z,31.15
2017-04-28T09:20:18.354Z,30.38
2017-04-28T09:21:32.135Z,29.81
2017-04-28T09:22:45.705Z,29.62
2017-04-28T09:23:59.837Z,29.35
2017-04-28T09:25:13.318Z,29.54
2017-04-28T09:26:26.764Z,29.06
2017-04-28T09:27:40.236Z,28.69
2017-04-28T09:28:53.732Z,28.69
2017-04-28T09:30:07.988Z,29.06
2017-04-28T09:31:21.535Z,28.97
2017-04-28T09:32:34.959Z,28.97
2017-04-28T09:33:48.734Z,28.98
2017-04-28T09:35:02.305Z,29.36
2017-04-28T09:36:15.912Z,29.25
2017-04-28T09:37:29.718Z,29.83
2017-04-28T09:38:43.166Z,30.02
2017-04-28T09:39:56.751Z,30.4
2017-04-28T09:41:10.531Z,30.77
2017-04-28T09:42:24.091Z,30.19
2017-04-28T09:43:50.266Z,29.91
2017-04-28T09:45:04.448Z,30
2017-04-28T09:46:17.890Z,30.48
2017-04-28T09:47:31.283Z,30.96
2017-04-28T09:48:45.125Z,31.15
2017-04-28T09:49:58.619Z,31.34
2017-04-28T09:51:12.120Z,31.53
2017-04-28T09:52:25.591Z,31.63
2017-04-28T09:53:39.299Z,31.34
2017-04-28T09:54:52.710Z,31.72
2017-04-28T09:56:06.629Z,31.34
2017-04-28T09:57:20.678Z,31.55
2017-04-28T09:58:34.395Z,31.45
2017-04-28T09:59:48.141Z,32.03
2017-04-28T10:01:01.687Z,31.45
2017-04-28T10:02:15.126Z,31.43
2017-04-28T10:03:28.662Z,31.05
2017-04-28T10:04:42.404Z,30.86
2017-04-28T10:05:56.262Z,31.16
2017-04-28T10:07:09.836Z,31.24
2017-04-28T10:08:23.417Z,32.01
2017-04-28T10:09:36.850Z,32.49
2017-04-28T10:10:50.361Z,32.49
2017-04-28T10:12:03.947Z,33.15
2017-04-28T10:13:17.390Z,33.06
2017-04-28T10:14:30.907Z,33.15
2017-04-28T10:15:44.457Z,32.39
2017-04-28T10:16:57.969Z,31.63
2017-04-28T10:18:11.689Z,31.64
2017-04-28T10:19:25.127Z,31.55
2017-04-28T10:20:38.569Z,31.35
2017-04-28T10:21:51.994Z,31.64
2017-04-28T10:23:05.493Z,31.26
2017-04-28T10:24:18.952Z,31.07
2017-04-28T10:25:32.970Z,31.16
2017-04-28T10:26:46.419Z,31.09
2017-04-28T10:28:00.191Z,31.09
2017-04-28T10:29:13.686Z,31.47
2017-04-28T10:30:27.177Z,31.56
2017-04-28T10:31:40.655Z,31.66
2017-04-28T10:32:54.141Z,31.37
2017-04-28T10:34:07.938Z,31.09
2017-04-28T10:35:21.494Z,31.1
2017-04-28T10:36:35.239Z,30.91
2017-04-28T10:37:48.978Z,30.91
2017-04-28T10:39:04.062Z,30.43
2017-04-28T10:40:17.840Z,30.06
2017-04-28T10:41:31.428Z,30.05
2017-04-28T10:42:45.189Z,30.15
2017-04-28T10:44:03.831Z,30.15
2017-04-28T10:45:17.590Z,30.06
2017-04-28T10:46:31.374Z,30.24
2017-04-28T10:47:45.192Z,30.43
2017-04-28T10:48:58.665Z,30.44
2017-04-28T10:50:12.330Z,31.01
2017-04-28T10:51:26.090Z,30.72
2017-04-28T10:52:40.186Z,31.01
2017-04-28T10:53:54.009Z,31.48
2017-04-28T10:55:07.483Z,31.58
2017-04-28T10:56:21.070Z,32.14
2017-04-28T10:57:34.989Z,32.41
2017-04-28T10:58:48.430Z,32.31
2017-04-28T11:00:01.932Z,32.49
2017-04-28T11:01:21.956Z,33.44
2017-04-28T11:02:35.433Z,34.2
2017-04-28T11:03:48.945Z,34.49
2017-04-28T11:05:02.515Z,34.95
2017-04-28T11:06:16.057Z,34.86
2017-04-28T11:07:29.874Z,34.77
2017-04-28T11:08:43.825Z,34.77
2017-04-28T11:09:57.351Z,35.62
2017-04-28T11:11:11.190Z,35.82
2017-04-28T11:12:25.009Z,35.72
2017-04-28T11:13:38.671Z,35.91
2017-04-28T11:14:52.180Z,36.1
2017-04-28T11:16:05.983Z,36.39
2017-04-28T11:17:20.066Z,36.37
2017-04-28T11:18:34.093Z,36.37
2017-04-28T11:20:00.732Z,36.56
2017-04-28T11:21:14.343Z,36.39
2017-04-28T11:22:28.170Z,36.19
2017-04-28T11:24:32.940Z,36
2017-04-28T11:25:46.462Z,35.43
2017-04-28T11:26:59.921Z,35.35
2017-04-28T11:28:13.448Z,35.35
2017-04-28T11:29:27.203Z,34.78
2017-04-28T11:30:40.680Z,34.13
2017-04-28T11:31:54.158Z,34.2
2017-04-28T11:33:07.659Z,33.54
2017-04-28T11:34:21.332Z,33.64
2017-04-28T11:35:35.174Z,33.94
2017-04-28T11:36:49.017Z,33.84
2017-04-28T11:38:02.515Z,33.56
2017-04-28T11:39:16.030Z,33.65
2017-04-28T11:40:29.559Z,32.89
2017-04-28T11:41:43.410Z,33.27
2017-04-28T11:42:57.165Z,33.36
2017-04-28T11:44:11.078Z,32.41
2017-04-28T11:45:25.071Z,32.03
2017-04-28T11:46:38.649Z,32.42
2017-04-28T11:47:52.204Z,32.42
2017-04-28T11:49:06.017Z,33.38
2017-04-28T11:50:19.896Z,33.09
2017-04-28T11:51:33.467Z,32.42
2017-04-28T11:52:47.921Z,32.23
2017-04-28T11:54:01.758Z,32.33
2017-04-28T11:55:15.406Z,33.28
2017-04-28T11:56:29.955Z,33.36
2017-04-28T11:57:43.716Z,33.56
2017-04-28T11:58:57.678Z,34.32
2017-04-28T12:00:11.627Z,33.94
2017-04-28T12:01:25.362Z,33.17
2017-04-28T12:02:39.633Z,32.6
2017-04-28T12:03:54.481Z,32.03
2017-04-28T12:05:08.157Z,31.26
2017-04-28T12:06:21.637Z,30.49
2017-04-28T12:07:35.529Z,30.49
2017-04-28T12:08:49.082Z,30.4
2017-04-28T12:10:03.063Z,30.41
2017-04-28T12:11:16.585Z,30.61
2017-04-28T12:12:30.556Z,30.13
2017-04-28T12:13:44.201Z,30.13
2017-04-28T12:14:57.720Z,29.95
2017-04-28T12:16:11.160Z,29.86
2017-04-28T12:18:11.642Z,29.19
2017-04-28T12:19:25.172Z,29.66
2017-04-28T12:20:39.981Z,30.03
2017-04-28T12:21:54.616Z,30.32
2017-04-28T12:23:08.229Z,30.03
2017-04-28T12:24:21.818Z,29.65
2017-04-28T12:25:35.423Z,29.55
2017-04-28T12:26:48.917Z,28.79
2017-04-28T12:28:02.456Z,28.31
2017-04-28T12:29:16.390Z,27.83
2017-04-28T12:30:29.900Z,28.13
2017-04-28T12:31:43.440Z,28.8
2017-04-28T12:32:57.163Z,28.7
2017-04-28T12:34:10.709Z,28.59
2017-04-28T12:35:24.192Z,28.5
2017-04-28T12:36:37.800Z,28.5
2017-04-28T12:37:51.412Z,28.12
2017-04-28T12:39:05.637Z,29.17
2017-04-28T12:40:19.258Z,30.22
2017-04-28T12:41:33.770Z,30.61
2017-04-28T12:42:47.573Z,30.69
2017-04-28T12:44:01.168Z,30.69
2017-04-28T12:45:15.214Z,30.78
2017-04-28T12:46:28.736Z,31.26
2017-04-28T12:47:42.510Z,31.16
2017-04-28T12:48:56.237Z,30.8
2017-04-28T12:50:10.105Z,30.41
2017-04-28T12:51:37.018Z,29.74
2017-04-28T12:52:50.612Z,30.13
2017-04-28T12:54:04.104Z,30.61
2017-04-28T12:55:18.030Z,30.88
2017-04-28T12:56:31.846Z,30.41
2017-04-28T12:57:45.344Z,29.83
2017-04-28T12:58:58.789Z,29.84
2017-04-28T13:00:12.399Z,29.94
2017-04-28T13:01:26.685Z,29.84
2017-04-28T13:02:40.589Z,29.55
2017-04-28T13:03:54.386Z,29.27
2017-04-28T13:05:07.887Z,29.27
2017-04-28T13:06:21.410Z,28.98
2017-04-28T13:07:34.934Z,28.23
2017-04-28T13:08:48.445Z,27.66
2017-04-28T13:10:02.363Z,27.47
2017-04-28T13:11:16.679Z,27.66
2017-04-28T13:12:30.140Z,27.47
2017-04-28T13:13:43.593Z,27.84
2017-04-28T13:14:57.201Z,28.12
2017-04-28T13:16:10.640Z,28.52
2017-04-28T13:17:24.142Z,29.19
2017-04-28T13:18:37.629Z,29.76
2017-04-28T13:19:51.454Z,29.28
2017-04-28T13:21:05.436Z,29.47
2017-04-28T13:22:19.250Z,29.74
2017-04-28T13:23:32.879Z,29.74
2017-04-28T13:24:46.894Z,30.41
2017-04-28T13:26:00.954Z,30.13
2017-04-28T13:27:14.423Z,29.94
2017-04-28T13:28:28.654Z,29.94
2017-04-28T13:29:42.753Z,29.94
2017-04-28T13:30:56.808Z,30.21
2017-04-28T13:32:10.243Z,30.69
2017-04-28T13:33:24.010Z,30.98
2017-04-28T13:34:37.571Z,30.3
2017-04-28T13:35:51.045Z,30.4
2017-04-28T13:37:04.546Z,30.02
2017-04-28T13:38:17.991Z,30.11
2017-04-28T13:39:31.484Z,29.92
2017-04-28T13:40:45.406Z,29.92
2017-04-28T13:41:59.002Z,30.11
2017-04-28T13:43:12.816Z,30.49
2017-04-28T13:44:26.316Z,30.59
2017-04-28T13:45:40.309Z,30.98
2017-04-28T13:46:53.844Z,31.07
2017-04-28T13:48:07.394Z,30.98
2017-04-28T13:49:21.179Z,30.98
2017-04-28T13:50:34.674Z,30.4
2017-04-28T13:51:48.454Z,30.11
2017-04-28T13:53:01.991Z,30.4
2017-04-28T13:54:15.777Z,30.4
2017-04-28T13:55:29.637Z,30.7
2017-04-28T13:56:43.067Z,30.7
2017-04-28T13:57:56.619Z,30.61
2017-04-28T13:59:10.070Z,30.03
2017-04-28T14:00:23.807Z,29.08
2017-04-28T14:01:37.241Z,28.5
2017-04-28T14:02:50.751Z,28.79
2017-04-28T14:04:04.231Z,28.98
2017-04-28T14:05:17.672Z,28.5
2017-04-28T14:06:31.648Z,27.83
2017-04-28T14:07:45.400Z,27.93
2017-04-28T14:08:58.887Z,27.47
2017-04-28T14:10:12.347Z,27.84
2017-04-28T14:11:25.812Z,28.23
2017-04-28T14:12:39.576Z,27.93
2017-04-28T14:13:53.499Z,27.55
2017-04-28T14:15:06.953Z,27.93
2017-04-28T14:16:20.672Z,28.02
2017-04-28T14:17:34.134Z,29.08
2017-04-28T14:18:47.856Z,28.79
2017-04-28T14:20:02.036Z,28.59
2017-04-28T14:21:16.347Z,28.12
2017-04-28T14:22:29.847Z,28.12
2017-04-28T14:23:43.840Z,28.12
2017-04-28T14:24:57.589Z,28.02
2017-04-28T14:26:11.073Z,28.41
2017-04-28T14:27:25.049Z,28.59
2017-04-28T14:28:40.430Z,28.88
2017-04-28T14:30:10.447Z,28.98
2017-04-28T14:31:26.659Z,28.59
2017-04-28T14:32:44.581Z,28.31
2017-04-28T14:34:03.292Z,28.31
2017-04-28T14:35:18.504Z,28.87
2017-04-28T14:36:31.956Z,28.97
2017-04-28T14:37:45.539Z,28.97
2017-04-28T14:38:59.030Z,28.58
2017-04-28T14:40:12.983Z,28.87
2017-04-28T14:41:26.500Z,29.25
2017-04-28T14:42:40.224Z,29.54
2017-04-28T14:43:53.694Z,29.83
2017-04-28T14:45:07.211Z,29.27
2017-04-28T14:46:20.689Z,29.44
2017-04-28T14:47:34.751Z,29.54
2017-04-28T14:48:48.477Z,29.35
2017-04-28T14:50:01.970Z,29.35
2017-04-28T14:51:15.525Z,29.25
2017-04-28T14:52:28.974Z,28.97
2017-04-28T14:53:42.435Z,28.97
2017-04-28T14:54:55.879Z,28.59
2017-04-28T14:56:09.454Z,28.22
2017-04-28T14:57:23.324Z,28.31
2017-04-28T14:58:36.823Z,28.02
2017-04-28T14:59:50.346Z,28.22
2017-04-28T15:01:04.358Z,28.59
2017-04-28T15:02:17.887Z,28.59
2017-04-28T15:03:31.928Z,28.88
2017-04-28T15:04:45.393Z,28.79
2017-04-28T15:07:29.846Z,29.36
2017-04-28T15:08:45.011Z,29.08
2017-04-28T15:09:58.509Z,28.79
2017-04-28T15:11:12.400Z,28.98
2017-04-28T15:12:25.975Z,28.79
2017-04-28T15:13:39.530Z,28.59
2017-04-28T15:14:53.441Z,28.12
2017-04-28T15:16:07.126Z,28.41
2017-04-28T15:17:21.092Z,28.98
2017-04-28T15:18:35.073Z,28.69
2017-04-28T15:19:48.934Z,28.12
2017-04-28T15:21:02.477Z,27.93
2017-04-28T15:22:16.792Z,27.93
2017-04-28T15:23:30.850Z,28.41
2017-04-28T15:24:44.465Z,28.49
2017-04-28T15:25:58.020Z,28.77
2017-04-28T15:27:12.126Z,29.35
2017-04-28T15:28:26.172Z,29.73
2017-04-28T15:29:43.528Z,29.65
2017-04-28T15:30:59.433Z,29.65
2017-04-28T15:32:12.950Z,29.63
2017-04-28T15:33:26.730Z,29.92
2017-04-28T15:34:41.148Z,30.02
2017-04-28T15:35:54.935Z,30.3
2017-04-28T15:37:08.534Z,30.4
2017-04-28T15:38:22.790Z,30.4
2017-04-28T15:39:36.377Z,30.22
2017-04-28T15:40:50.066Z,30.69
2017-04-28T15:42:03.952Z,31.07
2017-04-28T15:43:18.114Z,31.16
2017-04-28T15:44:32.212Z,30.88
2017-04-28T15:45:46.159Z,31.45
2017-04-28T15:47:00.218Z,31.45
2017-04-28T15:48:14.132Z,31.93
2017-04-28T15:49:28.819Z,31.64
2017-04-28T15:50:43.969Z,31.93
2017-04-28T15:51:57.992Z,31.93
2017-04-28T15:53:12.220Z,32.41
2017-04-28T15:54:26.266Z,32.6
2017-04-28T15:55:40.442Z,32.7
2017-04-28T15:56:54.148Z,33.07
2017-04-28T15:58:09.470Z,33.07
2017-04-28T15:59:25.640Z,33.27